Time;durP1;ratioP1;P1;durP2;ratioP2;P2;SDS_P1;SDS_P2;PMS_P1;PMS_P2;Temp;Humidity;BMP_temperature;BMP_pressure;BME280_temperature;BME280_humidity;BME280_pressure;Samples;Min_cycle;Max_cycle;Signal;HPM_P1;HPM_P2
2022/07/09 00:02:11;;;;;;;8.37;4.20;;;15.80;99.90;;;;;;5033117;28;20441;-61
2022/07/09 00:04:38;;;;;;;4.40;3.83;;;15.80;99.90;;;;;;5033554;28;20470;-62
2022/07/09 00:07:05;;;;;;;6.03;4.03;;;15.70;99.90;;;;;;5033449;28;20811;-62
2022/07/09 00:09:33;;;;;;;4.50;3.37;;;15.70;99.90;;;;;;5033610;28;20448;-61
2022/07/09 00:12:00;;;;;;;4.80;3.47;;;15.70;99.90;;;;;;5033442;28;20452;-61
2022/07/09 00:14:29;;;;;;;4.33;3.47;;;15.70;99.90;;;;;;5033354;28;20891;-61
2022/07/09 00:16:58;;;;;;;7.83;4.03;;;15.60;99.90;;;;;;5032652;28;20461;-62
2022/07/09 00:19:25;;;;;;;5.07;4.00;;;15.60;99.90;;;;;;5033050;28;20452;-61
2022/07/09 00:21:52;;;;;;;5.53;3.90;;;15.60;99.90;;;;;;5032751;28;20984;-61
2022/07/09 00:24:20;;;;;;;5.53;3.90;;;15.50;99.90;;;;;;5033435;28;20503;-61
2022/07/09 00:26:47;;;;;;;5.07;3.80;;;15.60;99.90;;;;;;5037408;28;20503;-61
2022/07/09 00:29:14;;;;;;;5.33;3.70;;;15.50;99.90;;;;;;5037768;28;20523;-61
2022/07/09 00:31:41;;;;;;;4.30;3.90;;;15.50;99.90;;;;;;5037150;28;20522;-61
2022/07/09 00:34:10;;;;;;;4.27;3.53;;;15.50;99.90;;;;;;5017267;28;20488;-62
2022/07/09 00:36:37;;;;;;;5.70;4.37;;;15.40;99.90;;;;;;5026274;28;20514;-62
2022/07/09 00:39:05;;;;;;;6.73;3.90;;;15.40;99.90;;;;;;5037364;28;20453;-61
2022/07/09 00:41:32;;;;;;;7.13;4.37;;;15.40;99.90;;;;;;5037200;28;20523;-61
2022/07/09 00:44:00;;;;;;;6.40;3.77;;;15.40;99.90;;;;;;5037257;28;20499;-61
2022/07/09 00:46:27;;;;;;;5.20;4.17;;;15.40;99.90;;;;;;5025520;28;20449;-59
2022/07/09 00:48:54;;;;;;;6.00;3.90;;;15.30;99.90;;;;;;5037718;28;20515;-61
2022/07/09 00:51:23;;;;;;;5.60;4.37;;;15.30;99.90;;;;;;5036942;28;20518;-61
2022/07/09 00:53:51;;;;;;;5.60;4.30;;;15.20;99.90;;;;;;5037187;28;20499;-61
2022/07/09 00:56:19;;;;;;;5.97;4.53;;;15.20;99.90;;;;;;5020310;28;20484;-61
2022/07/09 00:58:47;;;;;;;6.33;4.07;;;15.20;99.90;;;;;;5036021;28;20535;-59
2022/07/09 01:01:14;;;;;;;8.77;5.03;;;15.20;99.90;;;;;;5035828;28;20945;-62
2022/07/09 01:03:41;;;;;;;7.13;4.30;;;15.20;99.90;;;;;;5036366;28;20471;-59
2022/07/09 01:06:09;;;;;;;9.10;4.70;;;15.20;99.90;;;;;;5036431;28;20856;-61
2022/07/09 01:08:38;;;;;;;7.67;4.47;;;15.20;99.90;;;;;;5036168;28;20448;-60
2022/07/09 01:11:05;;;;;;;7.03;4.57;;;15.20;99.90;;;;;;5036383;28;20921;-61
2022/07/09 01:13:33;;;;;;;8.80;5.00;;;15.20;99.90;;;;;;5035914;28;20515;-60
2022/07/09 01:16:00;;;;;;;7.00;4.30;;;15.20;99.90;;;;;;5036134;28;20567;-61
2022/07/09 01:18:27;;;;;;;5.83;4.77;;;15.20;99.90;;;;;;5036057;28;20904;-60
2022/07/09 01:20:56;;;;;;;5.77;4.40;;;15.20;99.90;;;;;;5035871;28;20527;-61
2022/07/09 01:23:24;;;;;;;4.90;4.10;;;15.20;99.90;;;;;;5035725;28;20829;-60
2022/07/09 01:25:52;;;;;;;6.27;4.90;;;15.20;99.90;;;;;;5035669;28;20448;-60
2022/07/09 01:28:19;;;;;;;7.70;5.27;;;15.20;99.90;;;;;;5035667;28;20449;-60
2022/07/09 01:30:47;;;;;;;9.93;4.63;;;15.20;99.90;;;;;;5035729;28;20527;-61
2022/07/09 01:33:14;;;;;;;8.90;5.07;;;15.20;99.90;;;;;;5035787;28;20463;-59
2022/07/09 01:35:41;;;;;;;9.07;4.80;;;15.10;99.90;;;;;;5036318;28;20480;-61
2022/07/09 01:38:10;;;;;;;16.27;5.20;;;15.10;99.90;;;;;;5035347;28;20453;-60
2022/07/09 01:40:37;;;;;;;10.73;4.23;;;15.10;99.90;;;;;;5035563;28;20522;-61
2022/07/09 01:43:05;;;;;;;6.17;4.50;;;15.10;99.90;;;;;;5035377;28;20793;-60
2022/07/09 01:45:32;;;;;;;8.63;5.43;;;15.10;99.90;;;;;;5035038;28;20968;-60
2022/07/09 01:47:59;;;;;;;10.00;4.70;;;15.10;99.90;;;;;;5035895;28;20449;-61
2022/07/09 01:50:26;;;;;;;9.90;5.90;;;15.10;99.90;;;;;;5036023;28;20514;-61
2022/07/09 01:52:54;;;;;;;8.37;5.10;;;15.10;99.90;;;;;;5035021;28;20455;-60
2022/07/09 01:55:23;;;;;;;9.43;5.50;;;15.10;99.90;;;;;;5035629;28;20523;-61
2022/07/09 01:57:50;;;;;;;7.37;5.20;;;15.10;99.90;;;;;;5035832;28;20782;-61
2022/07/09 02:00:18;;;;;;;7.70;4.60;;;15.10;99.90;;;;;;5035722;28;21062;-61
2022/07/09 02:02:46;;;;;;;8.90;5.60;;;15.10;99.90;;;;;;5021598;28;20495;-62
2022/07/09 02:05:14;;;;;;;6.43;5.00;;;15.10;99.90;;;;;;5037190;28;20495;-61
2022/07/09 02:07:41;;;;;;;8.63;6.07;;;15.10;99.90;;;;;;5035839;28;20503;-61
2022/07/09 02:10:09;;;;;;;6.83;5.03;;;15.10;99.90;;;;;;5035515;28;20941;-61
2022/07/09 02:12:38;;;;;;;9.30;5.27;;;15.00;99.90;;;;;;5035510;28;21032;-60
2022/07/09 02:15:06;;;;;;;7.03;5.70;;;15.00;99.90;;;;;;5035431;28;20547;-60
2022/07/09 02:17:34;;;;;;;10.97;4.60;;;14.90;99.90;;;;;;5035172;28;20484;-61
2022/07/09 02:20:01;;;;;;;8.80;4.80;;;14.90;99.90;;;;;;5035442;28;20527;-62
2022/07/09 02:22:29;;;;;;;10.13;5.30;;;14.90;99.90;;;;;;5035038;28;20456;-61
2022/07/09 02:24:56;;;;;;;7.47;4.50;;;14.80;99.90;;;;;;5035051;28;20453;-60
2022/07/09 02:27:23;;;;;;;7.57;4.33;;;14.80;99.90;;;;;;5034894;28;20445;-60
2022/07/09 02:29:52;;;;;;;11.67;4.87;;;14.70;99.90;;;;;;5034798;28;20988;-60
2022/07/09 02:32:19;;;;;;;9.47;5.33;;;14.70;99.90;;;;;;5034813;28;20952;-60
2022/07/09 02:34:47;;;;;;;8.43;5.07;;;14.70;99.90;;;;;;5034643;28;20445;-60
2022/07/09 02:37:14;;;;;;;13.20;5.20;;;14.60;99.90;;;;;;5034640;28;20972;-61
2022/07/09 02:39:41;;;;;;;7.70;4.80;;;14.60;99.90;;;;;;5035329;28;20507;-60
2022/07/09 02:42:08;;;;;;;7.30;4.73;;;14.60;99.90;;;;;;5034461;28;20449;-60
2022/07/09 02:44:36;;;;;;;11.93;4.43;;;14.70;99.90;;;;;;5034490;28;20453;-61
2022/07/09 02:47:05;;;;;;;8.80;5.10;;;14.70;99.90;;;;;;5034455;28;20449;-60
2022/07/09 02:49:32;;;;;;;7.77;4.53;;;14.70;99.90;;;;;;5033304;28;20542;-61
2022/07/09 02:52:01;;;;;;;10.53;4.90;;;14.80;99.90;;;;;;5034668;28;20449;-61
2022/07/09 02:54:28;;;;;;;6.53;4.40;;;14.80;99.90;;;;;;5034462;28;20539;-62
2022/07/09 02:56:56;;;;;;;7.43;5.47;;;14.90;99.90;;;;;;5034696;28;20531;-60
2022/07/09 02:59:24;;;;;;;6.80;4.77;;;14.90;99.90;;;;;;5034597;28;20449;-61
2022/07/09 03:01:51;;;;;;;6.77;5.10;;;15.00;99.90;;;;;;5033852;28;20461;-62
2022/07/09 03:04:20;;;;;;;9.77;5.20;;;15.00;99.90;;;;;;5034340;28;20579;-62
2022/07/09 03:06:48;;;;;;;8.23;4.63;;;15.10;99.90;;;;;;5033957;28;20445;-61
2022/07/09 03:09:16;;;;;;;9.33;5.20;;;15.10;99.90;;;;;;5034024;28;20540;-61
2022/07/09 03:11:43;;;;;;;7.43;4.60;;;15.20;99.90;;;;;;5033724;28;20572;-61
2022/07/09 03:14:10;;;;;;;7.20;5.50;;;15.20;99.90;;;;;;5033297;28;20449;-61
2022/07/09 03:16:37;;;;;;;6.90;5.63;;;15.20;99.90;;;;;;5033889;28;20480;-62
2022/07/09 03:19:05;;;;;;;6.03;5.10;;;15.30;99.90;;;;;;5034047;28;20882;-60
2022/07/09 03:21:33;;;;;;;6.03;5.23;;;15.30;99.90;;;;;;5033810;28;20501;-61
2022/07/09 03:24:01;;;;;;;5.73;5.13;;;15.30;99.90;;;;;;5033794;28;20657;-59
2022/07/09 03:26:28;;;;;;;6.93;5.93;;;15.30;99.90;;;;;;5033733;28;20536;-62
2022/07/09 03:28:55;;;;;;;7.20;4.90;;;15.30;99.90;;;;;;5033951;28;20526;-61
2022/07/09 03:31:22;;;;;;;6.50;5.13;;;15.20;99.90;;;;;;5033547;28;20980;-61
2022/07/09 03:33:53;;;;;;;8.63;6.20;;;15.30;99.90;;;;;;5033524;28;20978;-60
2022/07/09 03:36:20;;;;;;;5.53;5.00;;;15.30;99.90;;;;;;5034380;28;20965;-61
2022/07/09 03:38:49;;;;;;;9.13;5.57;;;15.20;99.90;;;;;;5034124;28;20481;-62
2022/07/09 03:41:16;;;;;;;7.20;4.67;;;15.20;99.90;;;;;;5033619;28;20876;-61
2022/07/09 03:43:43;;;;;;;8.20;5.40;;;15.20;99.90;;;;;;5033459;28;20483;-62
2022/07/09 03:46:10;;;;;;;8.10;5.17;;;15.20;99.90;;;;;;5033583;28;20939;-60
2022/07/09 03:48:38;;;;;;;6.57;4.90;;;15.20;99.90;;;;;;5033218;28;20476;-61
2022/07/09 03:51:06;;;;;;;8.67;5.00;;;15.20;99.90;;;;;;5033564;28;20468;-61
2022/07/09 03:53:33;;;;;;;8.77;4.73;;;15.20;99.90;;;;;;5033570;28;20867;-60
2022/07/09 03:56:02;;;;;;;6.83;4.80;;;15.30;99.90;;;;;;5033226;28;20523;-61
2022/07/09 03:58:29;;;;;;;5.70;4.70;;;15.30;99.90;;;;;;5033163;28;20449;-61
2022/07/09 04:00:57;;;;;;;5.50;4.30;;;15.30;99.90;;;;;;5032585;28;20485;-60
2022/07/09 04:03:24;;;;;;;6.77;4.47;;;15.30;99.90;;;;;;5071842;22;20484;-62
2022/07/09 04:05:51;;;;;;;6.00;4.90;;;15.40;99.90;;;;;;5036410;28;20942;-61
2022/07/09 04:10:00;;;;;;;9.10;4.57;;;15.40;99.90;;;;;;5094009;27;20577;-61
2022/07/09 04:12:27;;;;;;;8.57;5.90;;;15.50;99.90;;;;;;5092937;28;20454;-62
2022/07/09 04:14:54;;;;;;;8.60;5.57;;;15.50;99.90;;;;;;5092769;28;20530;-62
2022/07/09 04:17:22;;;;;;;7.30;4.90;;;15.50;99.90;;;;;;5089037;28;20451;-62
2022/07/09 04:19:49;;;;;;;9.63;4.90;;;15.60;99.90;;;;;;5071147;28;20517;-62
2022/07/09 04:22:16;;;;;;;5.27;4.50;;;15.60;99.90;;;;;;5083208;28;20504;-61
2022/07/09 04:24:43;;;;;;;6.77;5.40;;;15.60;99.90;;;;;;5091422;28;20498;-62
2022/07/09 04:27:12;;;;;;;7.67;4.83;;;15.60;99.90;;;;;;5090545;28;20941;-61
2022/07/09 04:29:39;;;;;;;9.40;4.83;;;15.60;99.90;;;;;;5084211;28;20536;-61
2022/07/09 04:32:07;;;;;;;4.93;4.40;;;15.60;99.90;;;;;;5084836;28;20460;-63
2022/07/09 04:34:35;;;;;;;6.70;3.93;;;15.70;99.90;;;;;;5070843;28;20471;-61
2022/07/09 04:37:02;;;;;;;10.50;4.23;;;15.70;99.90;;;;;;5071582;28;20486;-63
2022/07/09 04:39:29;;;;;;;8.70;5.67;;;15.80;99.90;;;;;;5073623;28;20884;-60
2022/07/09 04:41:56;;;;;;;9.47;5.10;;;15.90;99.90;;;;;;5075906;28;20469;-62
2022/07/09 04:44:25;;;;;;;10.60;5.53;;;16.10;99.90;;;;;;5072490;28;20567;-63
2022/07/09 04:46:52;;;;;;;9.50;5.10;;;16.10;99.90;;;;;;5069960;28;20939;-62
2022/07/09 04:49:20;;;;;;;8.17;5.30;;;16.20;99.90;;;;;;5071992;28;20824;-63
2022/07/09 04:51:48;;;;;;;7.50;5.60;;;16.20;99.90;;;;;;5069837;28;20459;-62
2022/07/09 04:54:15;;;;;;;6.60;5.90;;;16.20;99.90;;;;;;5069777;28;20520;-62
2022/07/09 04:56:42;;;;;;;10.00;5.97;;;16.20;99.90;;;;;;5069776;28;20451;-61
2022/07/09 04:59:10;;;;;;;10.00;5.70;;;16.20;99.90;;;;;;5078634;28;20443;-60
2022/07/09 05:01:38;;;;;;;8.60;6.00;;;16.20;99.90;;;;;;5069424;28;20854;-61
2022/07/09 05:04:06;;;;;;;10.57;6.23;;;16.20;99.90;;;;;;5069062;28;20521;-62
2022/07/09 05:06:33;;;;;;;7.37;5.80;;;16.20;99.90;;;;;;5069201;28;20953;-62
2022/07/09 05:09:00;;;;;;;10.77;6.70;;;16.30;99.90;;;;;;5068754;28;20475;-61
2022/07/09 05:11:28;;;;;;;8.90;6.00;;;16.30;99.90;;;;;;5068965;28;20443;-61
2022/07/09 05:13:55;;;;;;;10.57;7.37;;;16.40;99.90;;;;;;5069901;28;21062;-61
2022/07/09 05:16:22;;;;;;;10.03;6.37;;;16.50;99.90;;;;;;5077031;28;20451;-62
2022/07/09 05:18:51;;;;;;;8.30;6.07;;;16.60;99.90;;;;;;5089441;28;21059;-63
2022/07/09 05:21:18;;;;;;;11.33;6.30;;;16.60;99.90;;;;;;5068335;28;20936;-61
2022/07/09 05:23:45;;;;;;;9.17;8.17;;;16.70;99.90;;;;;;5062384;28;20471;-62
2022/07/09 05:26:13;;;;;;;8.27;6.33;;;16.80;99.90;;;;;;5065472;28;20448;-62
2022/07/09 05:28:41;;;;;;;8.23;6.90;;;17.00;99.90;;;;;;5055994;28;20563;-62
2022/07/09 05:31:08;;;;;;;7.07;6.37;;;17.20;99.90;;;;;;5056176;28;21007;-62
2022/07/09 05:33:35;;;;;;;9.57;7.07;;;17.50;99.90;;;;;;5066630;28;20526;-62
2022/07/09 05:36:04;;;;;;;12.27;6.90;;;17.60;99.90;;;;;;5080757;28;20448;-61
2022/07/09 05:38:32;;;;;;;9.50;7.63;;;17.60;99.90;;;;;;5079341;28;20546;-62
2022/07/09 05:40:59;;;;;;;10.33;7.23;;;17.60;99.90;;;;;;5075350;28;20455;-62
2022/07/09 05:43:26;;;;;;;10.17;6.70;;;17.50;99.90;;;;;;5055737;28;20490;-62
2022/07/09 05:45:54;;;;;;;11.63;8.07;;;17.50;99.90;;;;;;5073952;28;21001;-62
2022/07/09 05:48:21;;;;;;;13.27;8.27;;;17.40;99.90;;;;;;5067931;28;21038;-62
2022/07/09 05:50:48;;;;;;;13.03;8.77;;;17.40;99.90;;;;;;5055599;28;20452;-62
2022/07/09 05:53:17;;;;;;;11.53;7.80;;;17.40;99.90;;;;;;5069718;28;20998;-61
2022/07/09 05:55:44;;;;;;;8.83;7.67;;;17.30;99.90;;;;;;5055909;28;20937;-63
2022/07/09 05:58:11;;;;;;;9.43;8.03;;;17.30;99.90;;;;;;5054897;28;20502;-62
2022/07/09 06:00:39;;;;;;;14.87;7.60;;;17.20;99.90;;;;;;5072525;28;21016;-63
2022/07/09 06:03:06;;;;;;;9.40;7.27;;;17.30;99.90;;;;;;5069688;28;20491;-62
2022/07/09 06:05:34;;;;;;;11.17;7.03;;;17.30;99.90;;;;;;5055060;28;20523;-62
2022/07/09 06:08:01;;;;;;;11.07;6.80;;;17.40;99.90;;;;;;5054738;28;20883;-61
2022/07/09 06:10:30;;;;;;;10.17;6.87;;;17.50;99.90;;;;;;5054596;28;20475;-62
2022/07/09 06:12:57;;;;;;;8.50;6.20;;;17.70;99.90;;;;;;5069457;28;20471;-63
2022/07/09 06:15:24;;;;;;;13.97;6.60;;;17.80;99.90;;;;;;5069303;28;20474;-61
2022/07/09 06:17:51;;;;;;;9.93;5.93;;;17.90;99.90;;;;;;5060553;28;20872;-62
2022/07/09 06:20:19;;;;;;;9.00;5.20;;;18.00;99.90;;;;;;5057563;28;20502;-62
2022/07/09 06:22:47;;;;;;;9.10;5.23;;;18.10;99.90;;;;;;5055576;28;20456;-62
2022/07/09 06:25:14;;;;;;;6.20;5.40;;;18.20;99.90;;;;;;5054597;28;20444;-61
2022/07/09 06:27:43;;;;;;;9.33;6.03;;;18.20;99.90;;;;;;5054528;28;20543;-62
2022/07/09 06:30:10;;;;;;;9.30;5.33;;;18.30;99.90;;;;;;5054864;28;20520;-60
2022/07/09 06:32:38;;;;;;;5.93;4.67;;;18.40;99.90;;;;;;5053370;28;20491;-62
2022/07/09 06:35:06;;;;;;;7.03;4.67;;;18.50;99.90;;;;;;5054345;28;20447;-61
2022/07/09 06:37:33;;;;;;;6.73;5.00;;;18.50;99.90;;;;;;5072708;28;20451;-62
2022/07/09 06:40:00;;;;;;;7.40;4.60;;;18.50;99.90;;;;;;5083895;28;20439;-62
2022/07/09 06:42:28;;;;;;;6.00;4.73;;;18.50;99.90;;;;;;5060351;28;20560;-62
2022/07/09 06:44:57;;;;;;;4.33;3.93;;;18.70;99.90;;;;;;5054383;28;20522;-61
2022/07/09 06:47:24;;;;;;;4.50;4.03;;;18.80;99.90;;;;;;5054048;28;20563;-62
2022/07/09 06:49:52;;;;;;;4.83;3.50;;;18.80;99.90;;;;;;5054382;28;20475;-62
2022/07/09 06:52:19;;;;;;;6.03;3.80;;;18.80;99.90;;;;;;5053841;28;20448;-61
2022/07/09 06:54:46;;;;;;;5.25;3.83;;;18.80;99.90;;;;;;5053359;28;20451;-63
2022/07/09 06:57:15;;;;;;;6.53;3.13;;;18.70;99.90;;;;;;5068171;28;20220;-61
2022/07/09 06:59:43;;;;;;;3.10;2.80;;;18.80;99.90;;;;;;5068502;28;20992;-61
2022/07/09 07:02:11;;;;;;;6.80;2.73;;;18.70;99.90;;;;;;5054234;28;20509;-62
2022/07/09 07:04:39;;;;;;;3.60;3.27;;;18.70;99.90;;;;;;5053705;28;20968;-63
2022/07/09 07:07:06;;;;;;;4.43;3.03;;;18.80;99.90;;;;;;5054139;28;20448;-62
2022/07/09 07:09:34;;;;;;;3.30;2.73;;;18.80;99.90;;;;;;5053459;28;21076;-63
2022/07/09 07:12:01;;;;;;;4.60;3.17;;;18.90;99.90;;;;;;5053664;28;20444;-62
2022/07/09 07:14:28;;;;;;;3.90;3.10;;;19.00;99.90;;;;;;5053757;28;20555;-62
2022/07/09 07:16:56;;;;;;;5.67;2.63;;;19.10;99.90;;;;;;5053404;28;20493;-62
2022/07/09 07:19:24;;;;;;;3.97;2.97;;;19.20;99.90;;;;;;5053462;28;20978;-61
2022/07/09 07:21:52;;;;;;;5.20;3.13;;;19.20;99.90;;;;;;5053756;28;20489;-62
2022/07/09 07:24:19;;;;;;;3.70;2.70;;;19.20;99.90;;;;;;5054291;28;20468;-61
2022/07/09 07:26:46;;;;;;;3.67;2.63;;;19.40;99.80;;;;;;5073356;28;20443;-60
2022/07/09 07:29:13;;;;;;;8.03;3.00;;;19.50;99.20;;;;;;5073508;28;20544;-61
2022/07/09 07:31:41;;;;;;;3.90;2.90;;;19.60;98.80;;;;;;5069656;28;20859;-62
2022/07/09 07:34:08;;;;;;;4.43;2.80;;;19.70;98.70;;;;;;5061553;28;20460;-62
2022/07/09 07:36:37;;;;;;;3.93;2.80;;;19.60;98.50;;;;;;5060109;28;21023;-61
2022/07/09 07:39:04;;;;;;;5.20;3.10;;;19.50;98.60;;;;;;5052700;28;20932;-61
2022/07/09 07:41:32;;;;;;;3.87;2.17;;;19.40;98.60;;;;;;5053738;28;20444;-61
2022/07/09 07:43:59;;;;;;;5.03;3.20;;;19.30;99.20;;;;;;5052862;28;20881;-62
2022/07/09 07:46:26;;;;;;;5.13;2.50;;;19.30;99.50;;;;;;5053368;28;20486;-61
2022/07/09 07:48:54;;;;;;;3.43;3.10;;;19.30;99.50;;;;;;5053392;28;20997;-62
2022/07/09 07:51:21;;;;;;;6.40;3.73;;;19.30;99.40;;;;;;5054136;28;20948;-62
2022/07/09 07:53:50;;;;;;;4.50;3.10;;;19.40;99.20;;;;;;5053651;28;20559;-62
2022/07/09 07:56:17;;;;;;;2.97;2.20;;;19.50;99.00;;;;;;5054292;28;20506;-62
2022/07/09 07:58:44;;;;;;;7.20;3.00;;;19.60;98.80;;;;;;5054285;28;20535;-62
2022/07/09 08:01:11;;;;;;;8.10;3.07;;;19.70;98.40;;;;;;5054702;28;20448;-59
2022/07/09 08:03:39;;;;;;;3.20;2.90;;;19.70;98.30;;;;;;5055176;28;20464;-61
2022/07/09 08:06:07;;;;;;;7.80;3.50;;;19.90;98.20;;;;;;5056628;28;20448;-62
2022/07/09 08:08:35;;;;;;;5.40;2.83;;;20.10;97.70;;;;;;5055673;28;20463;-60
2022/07/09 08:11:04;;;;;;;4.30;2.70;;;20.10;97.20;;;;;;5054221;28;20488;-61
2022/07/09 08:13:31;;;;;;;4.33;2.70;;;20.10;97.00;;;;;;5053085;28;20455;-60
2022/07/09 08:15:58;;;;;;;6.73;2.43;;;20.00;97.00;;;;;;5053283;28;20593;-62
2022/07/09 08:18:25;;;;;;;3.97;3.17;;;19.90;97.00;;;;;;5053001;28;20534;-62
2022/07/09 08:20:53;;;;;;;3.40;2.60;;;19.80;97.00;;;;;;5052735;28;20532;-60
2022/07/09 08:23:20;;;;;;;4.00;2.93;;;19.90;97.10;;;;;;5052431;28;20980;-60
2022/07/09 08:25:47;;;;;;;4.53;3.00;;;19.80;97.10;;;;;;5052799;28;20453;-61
2022/07/09 08:28:16;;;;;;;2.77;2.47;;;19.80;97.10;;;;;;5052644;28;20451;-61
2022/07/09 08:30:44;;;;;;;3.20;2.93;;;19.80;97.20;;;;;;5053197;28;20488;-62
2022/07/09 08:33:11;;;;;;;2.47;2.27;;;19.80;97.10;;;;;;5053416;28;20522;-61
2022/07/09 08:35:38;;;;;;;3.40;3.07;;;19.90;97.10;;;;;;5052993;28;20456;-63
2022/07/09 08:38:05;;;;;;;5.37;2.93;;;20.10;96.90;;;;;;5053783;28;20448;-62
2022/07/09 08:40:33;;;;;;;3.40;3.00;;;20.20;96.40;;;;;;5053116;28;20928;-59
2022/07/09 08:43:04;;;;;;;3.37;2.97;;;20.20;95.80;;;;;;5053340;28;20859;-61
2022/07/09 08:45:35;;;;;;;2.37;2.17;;;20.20;95.80;;;;;;5053002;28;20804;-62
2022/07/09 08:48:03;;;;;;;4.63;2.63;;;20.40;95.70;;;;;;5052695;28;20461;-61
2022/07/09 08:50:30;;;;;;;5.93;2.70;;;20.50;95.30;;;;;;5053017;28;20547;-62
2022/07/09 08:52:58;;;;;;;3.90;2.83;;;20.50;95.00;;;;;;5053038;28;20523;-62
2022/07/09 08:55:26;;;;;;;3.33;2.23;;;20.50;94.60;;;;;;5054188;28;20450;-61
2022/07/09 08:57:53;;;;;;;2.90;2.60;;;20.40;94.50;;;;;;5056587;28;20444;-60
2022/07/09 09:00:21;;;;;;;5.07;2.90;;;20.30;94.40;;;;;;5056308;28;20448;-61
2022/07/09 09:02:49;;;;;;;5.37;2.30;;;20.20;94.30;;;;;;5056236;28;20497;-62
2022/07/09 09:05:17;;;;;;;3.70;2.90;;;20.20;94.20;;;;;;5056459;28;20503;-62
2022/07/09 09:07:45;;;;;;;2.77;2.50;;;20.20;94.40;;;;;;5056040;28;20471;-61
2022/07/09 09:10:23;;;;;;;4.93;2.67;;;20.40;94.00;;;;;;5055701;28;20556;-62
2022/07/09 09:12:50;;;;;;;2.70;2.37;;;20.40;93.20;;;;;;5055920;28;20761;-60
2022/07/09 09:15:19;;;;;;;2.63;2.43;;;20.60;93.10;;;;;;5056547;28;20452;-62
2022/07/09 09:17:47;;;;;;;2.70;2.20;;;20.70;92.60;;;;;;5063003;28;20455;-61
2022/07/09 09:20:16;;;;;;;2.87;2.10;;;20.70;92.30;;;;;;5061357;28;20437;-61
2022/07/09 09:22:48;;;;;;;5.77;2.30;;;20.90;91.90;;;;;;5057408;28;20448;-61
2022/07/09 09:25:20;;;;;;;3.43;2.17;;;21.00;91.30;;;;;;5055712;28;20926;-60
2022/07/09 09:27:54;;;;;;;6.77;2.57;;;21.00;90.90;;;;;;5056157;28;20441;-61
2022/07/09 09:30:22;;;;;;;3.37;2.30;;;21.00;90.70;;;;;;5055185;28;20570;-61
2022/07/09 09:32:57;;;;;;;4.00;2.60;;;21.10;90.50;;;;;;5055389;28;20447;-62
2022/07/09 09:35:27;;;;;;;4.53;2.77;;;21.20;90.00;;;;;;5055356;28;20446;-62
2022/07/09 09:37:55;;;;;;;4.00;2.50;;;21.30;89.20;;;;;;5055135;28;20451;-62
2022/07/09 09:40:23;;;;;;;3.07;2.00;;;21.60;87.10;;;;;;5055736;28;20501;-62
2022/07/09 09:42:50;;;;;;;2.40;2.20;;;21.90;84.80;;;;;;5055553;28;20451;-61
2022/07/09 09:45:18;;;;;;;3.20;2.10;;;22.20;83.20;;;;;;5055310;28;20542;-61
2022/07/09 09:47:48;;;;;;;3.30;2.00;;;22.50;80.80;;;;;;5055358;28;20452;-61
2022/07/09 09:50:18;;;;;;;2.50;1.60;;;22.60;78.00;;;;;;5055441;28;20489;-62
2022/07/09 09:52:50;;;;;;;3.73;2.30;;;22.60;76.30;;;;;;5055566;28;20443;-62
2022/07/09 09:55:19;;;;;;;3.57;2.20;;;22.60;74.30;;;;;;5055156;28;20456;-61
2022/07/09 09:57:46;;;;;;;3.50;1.93;;;22.60;74.00;;;;;;5055057;28;20447;-62
2022/07/09 10:00:15;;;;;;;2.47;1.77;;;22.60;72.20;;;;;;5055158;28;20443;-60
2022/07/09 10:02:45;;;;;;;5.83;1.87;;;22.60;70.90;;;;;;5054455;28;20462;-60
2022/07/09 10:05:12;;;;;;;1.90;1.80;;;22.70;70.10;;;;;;5056170;28;20479;-61
2022/07/09 10:07:41;;;;;;;3.27;1.77;;;22.60;69.90;;;;;;5054906;28;20455;-62
2022/07/09 10:10:18;;;;;;;2.97;1.93;;;22.50;69.80;;;;;;5055275;28;20537;-61
2022/07/09 10:12:45;;;;;;;2.80;2.40;;;22.40;70.30;;;;;;5055023;28;20878;-61
2022/07/09 10:15:22;;;;;;;8.60;2.27;;;22.20;70.50;;;;;;5055072;28;20876;-62
2022/07/09 10:17:50;;;;;;;2.33;2.10;;;22.10;71.80;;;;;;5054859;28;20522;-61
2022/07/09 10:20:18;;;;;;;2.60;2.00;;;21.90;71.90;;;;;;5054416;28;20440;-62
2022/07/09 10:22:46;;;;;;;3.40;1.80;;;21.80;72.60;;;;;;5056565;28;20445;-61
2022/07/09 10:25:29;;;;;;;4.40;2.00;;;21.80;73.00;;;;;;5059263;28;20464;-61
2022/07/09 10:27:56;;;;;;;2.00;1.53;;;22.00;73.20;;;;;;5060144;28;20489;-61
2022/07/09 10:30:25;;;;;;;2.90;1.77;;;22.20;71.30;;;;;;5059660;28;20521;-61
2022/07/09 10:33:07;;;;;;;2.10;1.50;;;22.30;70.40;;;;;;5058150;28;20646;-60
2022/07/09 10:35:41;;;;;;;2.23;1.93;;;22.50;68.80;;;;;;5056638;28;20778;-62
2022/07/09 10:38:09;;;;;;;3.33;2.33;;;22.80;67.10;;;;;;5056112;28;20911;-61
2022/07/09 10:40:43;;;;;;;1.70;1.60;;;23.00;66.30;;;;;;5056877;28;20493;-61
2022/07/09 10:43:11;;;;;;;2.20;2.00;;;23.30;65.30;;;;;;5057054;28;20534;-61
2022/07/09 10:45:40;;;;;;;1.70;1.60;;;23.50;64.10;;;;;;5056977;28;20456;-61
2022/07/09 10:48:11;;;;;;;1.97;1.60;;;23.60;63.20;;;;;;5056474;28;20452;-61
2022/07/09 10:50:40;;;;;;;2.03;1.60;;;23.50;61.50;;;;;;5056425;28;20504;-61
2022/07/09 10:53:08;;;;;;;4.30;1.80;;;23.60;61.50;;;;;;5054198;28;20472;-62
2022/07/09 10:55:36;;;;;;;1.50;1.17;;;23.50;60.70;;;;;;5054476;28;20943;-61
2022/07/09 10:58:07;;;;;;;1.97;1.73;;;23.30;59.80;;;;;;5054665;28;20489;-61
2022/07/09 11:00:35;;;;;;;3.27;1.43;;;23.10;58.90;;;;;;5054382;28;20428;-62
2022/07/09 11:03:04;;;;;;;1.33;1.23;;;23.00;58.30;;;;;;5054444;28;20478;-61
2022/07/09 11:05:32;;;;;;;1.50;1.37;;;23.10;58.20;;;;;;5054602;28;20447;-62
2022/07/09 11:08:04;;;;;;;2.57;1.57;;;23.20;58.00;;;;;;5054767;28;20460;-62
2022/07/09 11:10:32;;;;;;;3.00;1.43;;;23.30;57.80;;;;;;5054877;28;20472;-60
2022/07/09 11:13:01;;;;;;;1.13;1.03;;;23.60;57.50;;;;;;5058833;28;20500;-61
2022/07/09 11:15:33;;;;;;;3.90;1.53;;;23.90;57.00;;;;;;5064534;28;20445;-61
2022/07/09 11:18:02;;;;;;;1.50;1.20;;;24.10;56.20;;;;;;5063580;28;20435;-62
2022/07/09 11:20:30;;;;;;;2.00;1.40;;;24.10;55.40;;;;;;5063905;28;20452;-62
2022/07/09 11:23:00;;;;;;;3.40;1.40;;;24.00;54.50;;;;;;5067309;28;20469;-62
2022/07/09 11:25:28;;;;;;;1.60;1.30;;;24.00;54.60;;;;;;5062988;28;20955;-62
2022/07/09 11:27:57;;;;;;;3.73;2.00;;;24.10;54.10;;;;;;5062936;28;20469;-61
2022/07/09 11:30:24;;;;;;;1.50;1.33;;;24.20;53.50;;;;;;5058430;28;20492;-61
2022/07/09 11:32:54;;;;;;;2.03;1.57;;;24.30;53.00;;;;;;5055585;28;20500;-60
2022/07/09 11:35:31;;;;;;;1.57;1.43;;;24.10;52.80;;;;;;5053899;28;20936;-61
2022/07/09 11:38:00;;;;;;;2.93;1.70;;;23.90;53.40;;;;;;5053712;28;20476;-60
2022/07/09 11:40:29;;;;;;;2.07;1.43;;;23.80;54.00;;;;;;5055309;28;20809;-62
2022/07/09 11:42:56;;;;;;;1.90;1.77;;;23.60;54.40;;;;;;5066141;28;20435;-62
2022/07/09 11:45:25;;;;;;;1.73;1.50;;;23.50;54.80;;;;;;5066753;28;20519;-62
2022/07/09 11:48:04;;;;;;;2.37;1.23;;;23.40;55.50;;;;;;5061261;28;20494;-61
2022/07/09 11:50:31;;;;;;;1.53;1.40;;;23.40;55.50;;;;;;5062197;28;20552;-61
2022/07/09 11:52:58;;;;;;;1.70;1.30;;;23.50;55.10;;;;;;5064139;28;20496;-61
2022/07/09 11:55:30;;;;;;;1.40;1.20;;;23.60;55.30;;;;;;5060521;28;20497;-60
2022/07/09 11:57:59;;;;;;;2.30;1.30;;;23.80;54.30;;;;;;5054096;28;20916;-62
2022/07/09 12:00:28;;;;;;;1.40;1.30;;;23.90;53.90;;;;;;5054170;28;20920;-62
2022/07/09 12:02:59;;;;;;;2.47;1.43;;;24.20;53.60;;;;;;5053168;28;20444;-61
2022/07/09 12:05:31;;;;;;;1.70;1.43;;;24.80;52.60;;;;;;5052608;28;20440;-61
2022/07/09 12:07:59;;;;;;;1.50;1.30;;;25.30;51.20;;;;;;5053226;28;20540;-62
2022/07/09 12:10:29;;;;;;;1.20;1.10;;;25.70;49.90;;;;;;5053242;28;20483;-61
2022/07/09 12:12:57;;;;;;;3.30;1.60;;;25.90;48.30;;;;;;5053341;28;20975;-62
2022/07/09 12:15:25;;;;;;;2.60;2.00;;;26.00;47.80;;;;;;5053302;28;20475;-61
2022/07/09 12:17:54;;;;;;;2.17;1.90;;;26.20;47.10;;;;;;5053020;28;20940;-62
2022/07/09 12:20:23;;;;;;;2.53;1.20;;;26.10;47.10;;;;;;5053079;28;20886;-61
2022/07/09 12:22:51;;;;;;;1.97;1.50;;;26.20;47.00;;;;;;5052790;28;20535;-59
2022/07/09 12:25:19;;;;;;;1.90;1.30;;;26.50;46.60;;;;;;5052562;28;20451;-59
2022/07/09 12:27:46;;;;;;;1.60;1.20;;;26.90;46.10;;;;;;5053042;28;20873;-62
2022/07/09 12:30:14;;;;;;;3.73;1.50;;;27.40;45.30;;;;;;5054363;28;20455;-62
2022/07/09 12:32:42;;;;;;;1.33;1.10;;;27.40;44.50;;;;;;5057058;28;20474;-63
2022/07/09 12:35:10;;;;;;;4.90;1.47;;;26.70;45.00;;;;;;5056699;28;20481;-62
2022/07/09 12:37:39;;;;;;;1.60;1.30;;;25.80;46.00;;;;;;5056993;28;20959;-62
2022/07/09 12:40:09;;;;;;;2.30;1.30;;;24.90;47.40;;;;;;5056895;28;20472;-61
2022/07/09 12:42:37;;;;;;;2.80;2.20;;;24.20;48.60;;;;;;5056777;28;20474;-61
2022/07/09 12:45:05;;;;;;;2.40;2.00;;;23.80;49.90;;;;;;5056529;28;20494;-61
2022/07/09 12:47:32;;;;;;;3.00;2.70;;;23.40;50.70;;;;;;5056379;28;20451;-62
2022/07/09 12:50:02;;;;;;;2.80;2.40;;;23.20;51.30;;;;;;5056874;28;20449;-62
2022/07/09 12:52:30;;;;;;;4.40;2.07;;;23.00;52.70;;;;;;5058974;28;20994;-63